sensor_id;sensor_type;location;lat;lon;timestamp;P1;durP1;ratioP1;P2;durP2;ratioP2
62832;SDS011;48891;49.220;6.920;2022-08-19T00:00:35;10.23;;;8.32;;
62832;SDS011;48891;49.220;6.920;2022-08-19T00:03:02;9.57;;;8.55;;
62832;SDS011;48891;49.220;6.920;2022-08-19T00:05:28;11.25;;;8.90;;
62832;SDS011;48891;49.220;6.920;2022-08-19T00:07:53;9.75;;;8.75;;
62832;SDS011;48891;49.220;6.920;2022-08-19T00:10:19;10.88;;;8.70;;
62832;SDS011;48891;49.220;6.920;2022-08-19T00:12:45;9.68;;;8.68;;
62832;SDS011;48891;49.220;6.920;2022-08-19T00:15:15;10.65;;;8.80;;
62832;SDS011;48891;49.220;6.920;2022-08-19T00:17:44;12.40;;;8.55;;
62832;SDS011;48891;49.220;6.920;2022-08-19T00:20:11;10.40;;;8.57;;
62832;SDS011;48891;49.220;6.920;2022-08-19T00:22:39;9.35;;;8.30;;
62832;SDS011;48891;49.220;6.920;2022-08-19T00:25:05;10.23;;;9.07;;
62832;SDS011;48891;49.220;6.920;2022-08-19T00:27:30;10.75;;;8.50;;
62832;SDS011;48891;49.220;6.920;2022-08-19T00:29:56;9.95;;;8.30;;
62832;SDS011;48891;49.220;6.920;2022-08-19T00:32:21;10.20;;;8.98;;
62832;SDS011;48891;49.220;6.920;2022-08-19T00:34:47;11.15;;;9.55;;
62832;SDS011;48891;49.220;6.920;2022-08-19T00:37:12;10.73;;;8.63;;
62832;SDS011;48891;49.220;6.920;2022-08-19T00:39:37;9.40;;;8.25;;
62832;SDS011;48891;49.220;6.920;2022-08-19T00:42:03;9.63;;;8.55;;
62832;SDS011;48891;49.220;6.920;2022-08-19T00:44:28;10.70;;;8.90;;
62832;SDS011;48891;49.220;6.920;2022-08-19T00:46:55;10.90;;;9.05;;
62832;SDS011;48891;49.220;6.920;2022-08-19T00:52:02;9.32;;;8.32;;
62832;SDS011;48891;49.220;6.920;2022-08-19T00:54:31;9.93;;;8.93;;
62832;SDS011;48891;49.220;6.920;2022-08-19T00:56:57;10.82;;;9.27;;
62832;SDS011;48891;49.220;6.920;2022-08-19T00:59:24;10.73;;;8.85;;
62832;SDS011;48891;49.220;6.920;2022-08-19T01:01:50;10.85;;;8.82;;
62832;SDS011;48891;49.220;6.920;2022-08-19T01:04:15;11.85;;;9.07;;
62832;SDS011;48891;49.220;6.920;2022-08-19T01:06:40;10.53;;;9.20;;
62832;SDS011;48891;49.220;6.920;2022-08-19T01:09:06;9.57;;;8.57;;
62832;SDS011;48891;49.220;6.920;2022-08-19T01:11:34;10.02;;;8.40;;
62832;SDS011;48891;49.220;6.920;2022-08-19T01:14:03;10.65;;;8.95;;
62832;SDS011;48891;49.220;6.920;2022-08-19T01:16:30;12.43;;;8.95;;
62832;SDS011;48891;49.220;6.920;2022-08-19T01:18:57;10.10;;;9.00;;
62832;SDS011;48891;49.220;6.920;2022-08-19T01:21:31;10.13;;;9.00;;
62832;SDS011;48891;49.220;6.920;2022-08-19T01:24:02;10.52;;;8.88;;
62832;SDS011;48891;49.220;6.920;2022-08-19T01:26:27;10.23;;;9.10;;
62832;SDS011;48891;49.220;6.920;2022-08-19T01:28:54;12.63;;;9.02;;
62832;SDS011;48891;49.220;6.920;2022-08-19T01:31:22;9.88;;;8.88;;
62832;SDS011;48891;49.220;6.920;2022-08-19T01:33:50;10.63;;;9.52;;
62832;SDS011;48891;49.220;6.920;2022-08-19T01:36:24;10.65;;;9.23;;
62832;SDS011;48891;49.220;6.920;2022-08-19T01:38:53;10.00;;;9.00;;
62832;SDS011;48891;49.220;6.920;2022-08-19T01:41:19;10.43;;;9.15;;
62832;SDS011;48891;49.220;6.920;2022-08-19T01:43:44;11.70;;;9.87;;
62832;SDS011;48891;49.220;6.920;2022-08-19T01:46:10;10.40;;;9.30;;
62832;SDS011;48891;49.220;6.920;2022-08-19T01:48:39;10.52;;;9.25;;
62832;SDS011;48891;49.220;6.920;2022-08-19T01:51:06;10.07;;;9.07;;
62832;SDS011;48891;49.220;6.920;2022-08-19T01:53:34;10.30;;;8.77;;
62832;SDS011;48891;49.220;6.920;2022-08-19T01:55:59;12.35;;;9.13;;
62832;SDS011;48891;49.220;6.920;2022-08-19T01:58:32;10.98;;;8.90;;
62832;SDS011;48891;49.220;6.920;2022-08-19T02:01:03;11.23;;;9.68;;
62832;SDS011;48891;49.220;6.920;2022-08-19T02:03:30;10.83;;;9.03;;
62832;SDS011;48891;49.220;6.920;2022-08-19T02:05:56;10.27;;;8.90;;
62832;SDS011;48891;49.220;6.920;2022-08-19T02:08:26;10.05;;;9.02;;
62832;SDS011;48891;49.220;6.920;2022-08-19T02:10:52;12.85;;;9.75;;
62832;SDS011;48891;49.220;6.920;2022-08-19T02:13:17;11.73;;;9.48;;
62832;SDS011;48891;49.220;6.920;2022-08-19T02:15:42;10.50;;;9.25;;
62832;SDS011;48891;49.220;6.920;2022-08-19T02:18:08;11.30;;;9.20;;
62832;SDS011;48891;49.220;6.920;2022-08-19T02:20:34;10.30;;;9.18;;
62832;SDS011;48891;49.220;6.920;2022-08-19T02:23:00;10.05;;;8.88;;
62832;SDS011;48891;49.220;6.920;2022-08-19T02:25:25;11.27;;;9.40;;
62832;SDS011;48891;49.220;6.920;2022-08-19T02:27:50;11.73;;;9.70;;
62832;SDS011;48891;49.220;6.920;2022-08-19T02:30:16;11.43;;;9.37;;
62832;SDS011;48891;49.220;6.920;2022-08-19T02:32:42;11.27;;;9.13;;
62832;SDS011;48891;49.220;6.920;2022-08-19T02:35:08;11.23;;;9.27;;
62832;SDS011;48891;49.220;6.920;2022-08-19T02:37:34;11.73;;;9.70;;
62832;SDS011;48891;49.220;6.920;2022-08-19T02:39:59;11.15;;;9.82;;
62832;SDS011;48891;49.220;6.920;2022-08-19T02:42:25;10.73;;;9.20;;
62832;SDS011;48891;49.220;6.920;2022-08-19T02:44:50;10.95;;;9.63;;
62832;SDS011;48891;49.220;6.920;2022-08-19T02:47:15;11.52;;;8.85;;
62832;SDS011;48891;49.220;6.920;2022-08-19T02:49:41;11.23;;;9.68;;
62832;SDS011;48891;49.220;6.920;2022-08-19T02:52:06;11.05;;;9.52;;
62832;SDS011;48891;49.220;6.920;2022-08-19T02:54:32;11.18;;;9.38;;
62832;SDS011;48891;49.220;6.920;2022-08-19T02:56:57;11.63;;;9.32;;
62832;SDS011;48891;49.220;6.920;2022-08-19T02:59:22;10.87;;;9.53;;
62832;SDS011;48891;49.220;6.920;2022-08-19T03:01:47;12.07;;;9.67;;
62832;SDS011;48891;49.220;6.920;2022-08-19T03:04:13;11.13;;;9.57;;
62832;SDS011;48891;49.220;6.920;2022-08-19T03:06:40;10.68;;;9.07;;
62832;SDS011;48891;49.220;6.920;2022-08-19T03:09:07;11.07;;;9.18;;
62832;SDS011;48891;49.220;6.920;2022-08-19T03:11:33;10.63;;;9.30;;
62832;SDS011;48891;49.220;6.920;2022-08-19T03:13:59;11.15;;;10.00;;
62832;SDS011;48891;49.220;6.920;2022-08-19T03:16:31;11.40;;;9.87;;
62832;SDS011;48891;49.220;6.920;2022-08-19T03:18:58;12.05;;;9.60;;
62832;SDS011;48891;49.220;6.920;2022-08-19T03:21:24;10.68;;;9.30;;
62832;SDS011;48891;49.220;6.920;2022-08-19T03:23:54;14.52;;;9.68;;
62832;SDS011;48891;49.220;6.920;2022-08-19T03:26:21;11.75;;;9.93;;
62832;SDS011;48891;49.220;6.920;2022-08-19T03:28:46;11.10;;;9.82;;
62832;SDS011;48891;49.220;6.920;2022-08-19T03:31:12;10.93;;;9.68;;
62832;SDS011;48891;49.220;6.920;2022-08-19T03:33:38;11.57;;;9.43;;
62832;SDS011;48891;49.220;6.920;2022-08-19T03:36:15;11.55;;;10.27;;
62832;SDS011;48891;49.220;6.920;2022-08-19T03:38:47;10.05;;;9.00;;
62832;SDS011;48891;49.220;6.920;2022-08-19T03:41:20;11.40;;;9.30;;
62832;SDS011;48891;49.220;6.920;2022-08-19T03:43:47;10.65;;;9.55;;
62832;SDS011;48891;49.220;6.920;2022-08-19T03:46:14;11.00;;;9.52;;
62832;SDS011;48891;49.220;6.920;2022-08-19T03:48:41;11.27;;;9.55;;
62832;SDS011;48891;49.220;6.920;2022-08-19T03:51:08;11.23;;;9.43;;
62832;SDS011;48891;49.220;6.920;2022-08-19T03:53:41;11.65;;;9.25;;
62832;SDS011;48891;49.220;6.920;2022-08-19T03:56:08;11.03;;;9.70;;
62832;SDS011;48891;49.220;6.920;2022-08-19T03:58:34;10.82;;;9.55;;
62832;SDS011;48891;49.220;6.920;2022-08-19T04:00:59;11.10;;;9.85;;
62832;SDS011;48891;49.220;6.920;2022-08-19T04:03:25;11.47;;;9.50;;
62832;SDS011;48891;49.220;6.920;2022-08-19T04:05:50;12.70;;;9.80;;
62832;SDS011;48891;49.220;6.920;2022-08-19T04:08:15;10.70;;;9.43;;
62832;SDS011;48891;49.220;6.920;2022-08-19T04:10:41;11.35;;;10.07;;
62832;SDS011;48891;49.220;6.920;2022-08-19T04:13:06;11.50;;;9.53;;
62832;SDS011;48891;49.220;6.920;2022-08-19T04:15:32;13.25;;;9.80;;
62832;SDS011;48891;49.220;6.920;2022-08-19T04:17:57;12.30;;;10.13;;
62832;SDS011;48891;49.220;6.920;2022-08-19T04:20:22;12.13;;;10.07;;
62832;SDS011;48891;49.220;6.920;2022-08-19T04:22:48;10.97;;;9.60;;
62832;SDS011;48891;49.220;6.920;2022-08-19T04:25:13;12.00;;;10.27;;
62832;SDS011;48891;49.220;6.920;2022-08-19T04:27:38;11.53;;;10.27;;
62832;SDS011;48891;49.220;6.920;2022-08-19T04:30:03;12.10;;;10.33;;
62832;SDS011;48891;49.220;6.920;2022-08-19T04:32:29;11.43;;;9.90;;
62832;SDS011;48891;49.220;6.920;2022-08-19T04:34:54;11.43;;;10.00;;
62832;SDS011;48891;49.220;6.920;2022-08-19T04:37:19;12.60;;;10.50;;
62832;SDS011;48891;49.220;6.920;2022-08-19T04:39:45;12.27;;;10.30;;
62832;SDS011;48891;49.220;6.920;2022-08-19T04:42:10;13.13;;;9.37;;
62832;SDS011;48891;49.220;6.920;2022-08-19T04:44:36;11.95;;;10.10;;
62832;SDS011;48891;49.220;6.920;2022-08-19T04:47:02;11.67;;;9.80;;
62832;SDS011;48891;49.220;6.920;2022-08-19T04:49:28;11.10;;;9.48;;
62832;SDS011;48891;49.220;6.920;2022-08-19T04:51:53;12.30;;;10.05;;
62832;SDS011;48891;49.220;6.920;2022-08-19T04:54:20;11.65;;;10.05;;
62832;SDS011;48891;49.220;6.920;2022-08-19T04:59:13;14.60;;;10.77;;
62832;SDS011;48891;49.220;6.920;2022-08-19T05:01:39;11.37;;;10.17;;
62832;SDS011;48891;49.220;6.920;2022-08-19T05:04:05;11.37;;;9.87;;
62832;SDS011;48891;49.220;6.920;2022-08-19T05:06:32;12.60;;;10.00;;
62832;SDS011;48891;49.220;6.920;2022-08-19T05:08:58;13.13;;;9.88;;
62832;SDS011;48891;49.220;6.920;2022-08-19T05:11:25;11.57;;;10.38;;
62832;SDS011;48891;49.220;6.920;2022-08-19T05:16:18;13.77;;;10.40;;
62832;SDS011;48891;49.220;6.920;2022-08-19T05:18:46;11.55;;;10.23;;
62832;SDS011;48891;49.220;6.920;2022-08-19T05:21:13;11.68;;;10.45;;
62832;SDS011;48891;49.220;6.920;2022-08-19T05:23:41;11.80;;;9.98;;
62832;SDS011;48891;49.220;6.920;2022-08-19T05:26:06;10.63;;;9.40;;
62832;SDS011;48891;49.220;6.920;2022-08-19T05:28:32;11.93;;;10.35;;
62832;SDS011;48891;49.220;6.920;2022-08-19T05:30:57;13.65;;;10.38;;
62832;SDS011;48891;49.220;6.920;2022-08-19T05:33:23;12.30;;;10.23;;
62832;SDS011;48891;49.220;6.920;2022-08-19T05:35:48;10.52;;;9.30;;
62832;SDS011;48891;49.220;6.920;2022-08-19T05:38:13;10.20;;;9.05;;
62832;SDS011;48891;49.220;6.920;2022-08-19T05:40:39;11.63;;;9.97;;
62832;SDS011;48891;49.220;6.920;2022-08-19T05:43:05;12.88;;;10.20;;
62832;SDS011;48891;49.220;6.920;2022-08-19T05:45:32;12.70;;;10.32;;
62832;SDS011;48891;49.220;6.920;2022-08-19T05:47:57;10.60;;;9.35;;
62832;SDS011;48891;49.220;6.920;2022-08-19T05:50:23;11.48;;;10.27;;
62832;SDS011;48891;49.220;6.920;2022-08-19T05:52:49;12.48;;;9.85;;
62832;SDS011;48891;49.220;6.920;2022-08-19T05:55:14;12.47;;;9.40;;
62832;SDS011;48891;49.220;6.920;2022-08-19T05:57:39;12.43;;;9.80;;
62832;SDS011;48891;49.220;6.920;2022-08-19T06:00:05;11.25;;;9.63;;
62832;SDS011;48891;49.220;6.920;2022-08-19T06:02:31;11.95;;;10.20;;
62832;SDS011;48891;49.220;6.920;2022-08-19T06:04:56;10.50;;;9.37;;
62832;SDS011;48891;49.220;6.920;2022-08-19T06:07:21;14.00;;;10.20;;
62832;SDS011;48891;49.220;6.920;2022-08-19T06:09:47;10.45;;;9.35;;
62832;SDS011;48891;49.220;6.920;2022-08-19T06:12:12;11.05;;;9.68;;
62832;SDS011;48891;49.220;6.920;2022-08-19T06:14:38;11.43;;;9.77;;
62832;SDS011;48891;49.220;6.920;2022-08-19T06:17:03;10.55;;;9.38;;
62832;SDS011;48891;49.220;6.920;2022-08-19T06:19:29;11.07;;;9.88;;
62832;SDS011;48891;49.220;6.920;2022-08-19T06:21:56;11.25;;;9.50;;
62832;SDS011;48891;49.220;6.920;2022-08-19T06:24:23;11.05;;;9.50;;
62832;SDS011;48891;49.220;6.920;2022-08-19T06:26:50;10.47;;;9.30;;
62832;SDS011;48891;49.220;6.920;2022-08-19T06:29:18;11.43;;;9.32;;
62832;SDS011;48891;49.220;6.920;2022-08-19T06:31:46;10.90;;;9.38;;
62832;SDS011;48891;49.220;6.920;2022-08-19T06:34:12;11.65;;;9.63;;
62832;SDS011;48891;49.220;6.920;2022-08-19T06:36:40;11.35;;;9.88;;
62832;SDS011;48891;49.220;6.920;2022-08-19T06:39:08;10.82;;;9.50;;
62832;SDS011;48891;49.220;6.920;2022-08-19T06:41:39;11.27;;;8.93;;
62832;SDS011;48891;49.220;6.920;2022-08-19T06:44:06;11.68;;;9.30;;
62832;SDS011;48891;49.220;6.920;2022-08-19T06:46:32;10.55;;;9.00;;
62832;SDS011;48891;49.220;6.920;2022-08-19T06:48:57;10.57;;;8.93;;
62832;SDS011;48891;49.220;6.920;2022-08-19T06:51:23;10.05;;;9.05;;
62832;SDS011;48891;49.220;6.920;2022-08-19T06:53:50;10.52;;;9.30;;
62832;SDS011;48891;49.220;6.920;2022-08-19T06:56:18;10.80;;;9.02;;
62832;SDS011;48891;49.220;6.920;2022-08-19T06:58:45;10.98;;;9.02;;
62832;SDS011;48891;49.220;6.920;2022-08-19T07:01:10;11.10;;;9.63;;
62832;SDS011;48891;49.220;6.920;2022-08-19T07:03:36;11.40;;;9.40;;
62832;SDS011;48891;49.220;6.920;2022-08-19T07:06:03;12.30;;;9.00;;
62832;SDS011;48891;49.220;6.920;2022-08-19T07:08:33;10.70;;;8.73;;
62832;SDS011;48891;49.220;6.920;2022-08-19T07:10:59;11.80;;;9.43;;
62832;SDS011;48891;49.220;6.920;2022-08-19T07:13:24;11.25;;;9.07;;
62832;SDS011;48891;49.220;6.920;2022-08-19T07:15:50;13.52;;;9.32;;
62832;SDS011;48891;49.220;6.920;2022-08-19T07:18:19;10.13;;;8.23;;
62832;SDS011;48891;49.220;6.920;2022-08-19T07:20:45;12.45;;;8.80;;
62832;SDS011;48891;49.220;6.920;2022-08-19T07:23:10;12.18;;;9.25;;
62832;SDS011;48891;49.220;6.920;2022-08-19T07:25:36;11.63;;;8.98;;
62832;SDS011;48891;49.220;6.920;2022-08-19T07:28:02;10.88;;;8.60;;
62832;SDS011;48891;49.220;6.920;2022-08-19T07:30:28;10.68;;;9.00;;
62832;SDS011;48891;49.220;6.920;2022-08-19T07:32:53;11.25;;;8.98;;
62832;SDS011;48891;49.220;6.920;2022-08-19T07:35:18;12.35;;;8.98;;
62832;SDS011;48891;49.220;6.920;2022-08-19T07:37:43;11.10;;;8.80;;
62832;SDS011;48891;49.220;6.920;2022-08-19T07:40:09;11.13;;;9.37;;
62832;SDS011;48891;49.220;6.920;2022-08-19T07:42:34;11.95;;;9.32;;
62832;SDS011;48891;49.220;6.920;2022-08-19T07:45:01;11.85;;;8.88;;
62832;SDS011;48891;49.220;6.920;2022-08-19T07:47:27;12.02;;;9.00;;
62832;SDS011;48891;49.220;6.920;2022-08-19T07:49:52;12.23;;;8.40;;
62832;SDS011;48891;49.220;6.920;2022-08-19T07:52:18;10.07;;;8.63;;
62832;SDS011;48891;49.220;6.920;2022-08-19T07:54:43;12.00;;;8.80;;
62832;SDS011;48891;49.220;6.920;2022-08-19T07:57:08;9.93;;;8.73;;
62832;SDS011;48891;49.220;6.920;2022-08-19T07:59:33;12.48;;;8.70;;
62832;SDS011;48891;49.220;6.920;2022-08-19T08:01:59;11.73;;;8.70;;
62832;SDS011;48891;49.220;6.920;2022-08-19T08:04:25;11.60;;;8.90;;
62832;SDS011;48891;49.220;6.920;2022-08-19T08:06:50;12.40;;;8.85;;
62832;SDS011;48891;49.220;6.920;2022-08-19T08:09:16;9.75;;;7.80;;
62832;SDS011;48891;49.220;6.920;2022-08-19T08:11:51;11.82;;;8.98;;
62832;SDS011;48891;49.220;6.920;2022-08-19T08:14:27;11.55;;;8.90;;
62832;SDS011;48891;49.220;6.920;2022-08-19T08:16:54;11.70;;;9.00;;
62832;SDS011;48891;49.220;6.920;2022-08-19T08:19:21;11.18;;;8.57;;
62832;SDS011;48891;49.220;6.920;2022-08-19T08:21:48;10.00;;;7.85;;
62832;SDS011;48891;49.220;6.920;2022-08-19T08:24:14;10.23;;;7.80;;
62832;SDS011;48891;49.220;6.920;2022-08-19T08:26:40;8.95;;;7.72;;
62832;SDS011;48891;49.220;6.920;2022-08-19T08:29:06;8.88;;;7.68;;
62832;SDS011;48891;49.220;6.920;2022-08-19T08:31:31;11.20;;;8.43;;
62832;SDS011;48891;49.220;6.920;2022-08-19T08:33:57;10.00;;;8.43;;
62832;SDS011;48891;49.220;6.920;2022-08-19T08:36:22;11.43;;;8.83;;
62832;SDS011;48891;49.220;6.920;2022-08-19T08:38:47;10.13;;;7.90;;
62832;SDS011;48891;49.220;6.920;2022-08-19T08:43:50;10.47;;;7.97;;
62832;SDS011;48891;49.220;6.920;2022-08-19T08:46:23;9.45;;;7.85;;
62832;SDS011;48891;49.220;6.920;2022-08-19T08:51:33;13.20;;;8.73;;
62832;SDS011;48891;49.220;6.920;2022-08-19T08:54:04;10.27;;;8.45;;
62832;SDS011;48891;49.220;6.920;2022-08-19T08:56:31;9.43;;;8.30;;
62832;SDS011;48891;49.220;6.920;2022-08-19T08:59:05;10.00;;;8.68;;
62832;SDS011;48891;49.220;6.920;2022-08-19T09:01:35;9.38;;;8.02;;
62832;SDS011;48891;49.220;6.920;2022-08-19T09:04:02;10.65;;;8.40;;
62832;SDS011;48891;49.220;6.920;2022-08-19T09:09:05;10.35;;;8.35;;
62832;SDS011;48891;49.220;6.920;2022-08-19T09:14:26;10.88;;;8.18;;
62832;SDS011;48891;49.220;6.920;2022-08-19T09:17:01;9.00;;;8.10;;
62832;SDS011;48891;49.220;6.920;2022-08-19T09:19:27;12.73;;;8.45;;
62832;SDS011;48891;49.220;6.920;2022-08-19T09:21:52;9.48;;;8.00;;
62832;SDS011;48891;49.220;6.920;2022-08-19T09:24:17;9.37;;;7.80;;
62832;SDS011;48891;49.220;6.920;2022-08-19T09:26:43;10.83;;;7.73;;
62832;SDS011;48891;49.220;6.920;2022-08-19T09:29:08;10.43;;;8.47;;
62832;SDS011;48891;49.220;6.920;2022-08-19T09:31:33;9.00;;;8.05;;
62832;SDS011;48891;49.220;6.920;2022-08-19T09:33:58;10.07;;;7.97;;
62832;SDS011;48891;49.220;6.920;2022-08-19T09:36:25;8.82;;;7.70;;
62832;SDS011;48891;49.220;6.920;2022-08-19T09:41:18;8.80;;;7.90;;
62832;SDS011;48891;49.220;6.920;2022-08-19T09:46:11;9.05;;;7.75;;
62832;SDS011;48891;49.220;6.920;2022-08-19T09:48:40;10.48;;;8.45;;
62832;SDS011;48891;49.220;6.920;2022-08-19T09:51:10;9.50;;;7.85;;
62832;SDS011;48891;49.220;6.920;2022-08-19T09:53:37;8.57;;;7.68;;
62832;SDS011;48891;49.220;6.920;2022-08-19T09:56:04;8.70;;;7.50;;
62832;SDS011;48891;49.220;6.920;2022-08-19T09:58:30;9.60;;;7.90;;
62832;SDS011;48891;49.220;6.920;2022-08-19T10:00:57;9.50;;;7.78;;
62832;SDS011;48891;49.220;6.920;2022-08-19T10:03:24;9.95;;;7.65;;
62832;SDS011;48891;49.220;6.920;2022-08-19T10:05:50;9.07;;;7.28;;
62832;SDS011;48891;49.220;6.920;2022-08-19T10:08:17;9.25;;;7.13;;
62832;SDS011;48891;49.220;6.920;2022-08-19T10:10:46;8.23;;;6.72;;
62832;SDS011;48891;49.220;6.920;2022-08-19T10:13:12;7.82;;;6.63;;
62832;SDS011;48891;49.220;6.920;2022-08-19T10:15:39;7.70;;;6.43;;
62832;SDS011;48891;49.220;6.920;2022-08-19T10:18:05;7.63;;;6.50;;
62832;SDS011;48891;49.220;6.920;2022-08-19T10:20:30;7.63;;;6.25;;
62832;SDS011;48891;49.220;6.920;2022-08-19T10:22:55;7.53;;;6.20;;
62832;SDS011;48891;49.220;6.920;2022-08-19T10:25:21;7.10;;;6.40;;
62832;SDS011;48891;49.220;6.920;2022-08-19T10:27:46;7.57;;;6.35;;
62832;SDS011;48891;49.220;6.920;2022-08-19T10:30:11;6.97;;;6.00;;
62832;SDS011;48891;49.220;6.920;2022-08-19T10:32:37;6.45;;;5.80;;
62832;SDS011;48891;49.220;6.920;2022-08-19T10:35:03;7.50;;;6.67;;
62832;SDS011;48891;49.220;6.920;2022-08-19T10:37:28;6.93;;;5.72;;
62832;SDS011;48891;49.220;6.920;2022-08-19T10:39:54;7.05;;;6.35;;
62832;SDS011;48891;49.220;6.920;2022-08-19T10:42:19;6.73;;;6.00;;
62832;SDS011;48891;49.220;6.920;2022-08-19T10:44:44;8.00;;;6.30;;
62832;SDS011;48891;49.220;6.920;2022-08-19T10:47:10;6.70;;;5.95;;
62832;SDS011;48891;49.220;6.920;2022-08-19T10:49:36;8.65;;;6.53;;
62832;SDS011;48891;49.220;6.920;2022-08-19T10:52:01;6.97;;;6.10;;
62832;SDS011;48891;49.220;6.920;2022-08-19T10:54:26;7.20;;;6.28;;
62832;SDS011;48891;49.220;6.920;2022-08-19T10:56:52;8.20;;;6.18;;
62832;SDS011;48891;49.220;6.920;2022-08-19T10:59:27;7.57;;;6.50;;
62832;SDS011;48891;49.220;6.920;2022-08-19T11:01:54;6.47;;;5.68;;
62832;SDS011;48891;49.220;6.920;2022-08-19T11:04:24;7.30;;;5.88;;
62832;SDS011;48891;49.220;6.920;2022-08-19T11:06:49;6.22;;;5.57;;
62832;SDS011;48891;49.220;6.920;2022-08-19T11:09:15;6.70;;;6.00;;
62832;SDS011;48891;49.220;6.920;2022-08-19T11:11:43;7.90;;;6.13;;
62832;SDS011;48891;49.220;6.920;2022-08-19T11:14:10;6.82;;;6.07;;
62832;SDS011;48891;49.220;6.920;2022-08-19T11:16:38;6.35;;;5.57;;
62832;SDS011;48891;49.220;6.920;2022-08-19T11:19:05;7.05;;;6.15;;
62832;SDS011;48891;49.220;6.920;2022-08-19T11:21:32;6.97;;;5.65;;
62832;SDS011;48891;49.220;6.920;2022-08-19T11:24:02;7.00;;;6.00;;
62832;SDS011;48891;49.220;6.920;2022-08-19T11:26:30;7.18;;;5.45;;
62832;SDS011;48891;49.220;6.920;2022-08-19T11:28:56;6.97;;;5.78;;
62832;SDS011;48891;49.220;6.920;2022-08-19T11:31:24;6.18;;;5.30;;
62832;SDS011;48891;49.220;6.920;2022-08-19T11:33:53;6.78;;;5.55;;
62832;SDS011;48891;49.220;6.920;2022-08-19T11:36:20;8.02;;;5.47;;
62832;SDS011;48891;49.220;6.920;2022-08-19T11:38:47;6.72;;;5.90;;
62832;SDS011;48891;49.220;6.920;2022-08-19T11:41:14;6.88;;;5.22;;
62832;SDS011;48891;49.220;6.920;2022-08-19T11:43:41;6.07;;;5.13;;
62832;SDS011;48891;49.220;6.920;2022-08-19T11:46:07;6.18;;;5.18;;
62832;SDS011;48891;49.220;6.920;2022-08-19T11:48:34;7.18;;;5.80;;
62832;SDS011;48891;49.220;6.920;2022-08-19T11:51:02;8.07;;;5.97;;
62832;SDS011;48891;49.220;6.920;2022-08-19T11:53:30;6.40;;;5.70;;
62832;SDS011;48891;49.220;6.920;2022-08-19T11:55:55;6.88;;;5.65;;
62832;SDS011;48891;49.220;6.920;2022-08-19T11:58:21;6.00;;;5.30;;
62832;SDS011;48891;49.220;6.920;2022-08-19T12:00:46;7.40;;;6.05;;
62832;SDS011;48891;49.220;6.920;2022-08-19T12:03:12;7.03;;;6.03;;
62832;SDS011;48891;49.220;6.920;2022-08-19T12:05:38;7.50;;;6.43;;
62832;SDS011;48891;49.220;6.920;2022-08-19T12:08:04;7.45;;;6.18;;
62832;SDS011;48891;49.220;6.920;2022-08-19T12:10:30;7.93;;;6.80;;
62832;SDS011;48891;49.220;6.920;2022-08-19T12:12:56;7.32;;;6.40;;
62832;SDS011;48891;49.220;6.920;2022-08-19T12:15:21;7.73;;;6.80;;
62832;SDS011;48891;49.220;6.920;2022-08-19T12:17:46;7.95;;;7.05;;
62832;SDS011;48891;49.220;6.920;2022-08-19T12:20:12;8.55;;;7.20;;
62832;SDS011;48891;49.220;6.920;2022-08-19T12:22:38;8.18;;;7.20;;
62832;SDS011;48891;49.220;6.920;2022-08-19T12:25:04;8.05;;;6.95;;
62832;SDS011;48891;49.220;6.920;2022-08-19T12:27:31;8.68;;;6.63;;
62832;SDS011;48891;49.220;6.920;2022-08-19T12:29:56;8.95;;;6.50;;
62832;SDS011;48891;49.220;6.920;2022-08-19T12:32:21;7.35;;;6.55;;
62832;SDS011;48891;49.220;6.920;2022-08-19T12:34:47;8.40;;;6.90;;
62832;SDS011;48891;49.220;6.920;2022-08-19T12:37:12;6.93;;;6.23;;
62832;SDS011;48891;49.220;6.920;2022-08-19T12:39:41;7.50;;;6.53;;
62832;SDS011;48891;49.220;6.920;2022-08-19T12:42:08;8.13;;;6.75;;
62832;SDS011;48891;49.220;6.920;2022-08-19T12:44:36;7.70;;;6.78;;
62832;SDS011;48891;49.220;6.920;2022-08-19T12:47:03;7.88;;;6.80;;
62832;SDS011;48891;49.220;6.920;2022-08-19T12:49:28;8.07;;;7.05;;
62832;SDS011;48891;49.220;6.920;2022-08-19T12:51:54;8.10;;;7.30;;
62832;SDS011;48891;49.220;6.920;2022-08-19T12:54:19;8.10;;;7.22;;
62832;SDS011;48891;49.220;6.920;2022-08-19T12:56:44;8.47;;;7.53;;
62832;SDS011;48891;49.220;6.920;2022-08-19T12:59:10;8.23;;;7.40;;
62832;SDS011;48891;49.220;6.920;2022-08-19T13:01:35;8.80;;;7.90;;
62832;SDS011;48891;49.220;6.920;2022-08-19T13:04:00;9.07;;;8.17;;
62832;SDS011;48891;49.220;6.920;2022-08-19T13:06:26;8.50;;;7.57;;
62832;SDS011;48891;49.220;6.920;2022-08-19T13:08:51;8.10;;;6.78;;
62832;SDS011;48891;49.220;6.920;2022-08-19T13:11:17;8.68;;;7.78;;
62832;SDS011;48891;49.220;6.920;2022-08-19T13:13:45;9.18;;;7.60;;
62832;SDS011;48891;49.220;6.920;2022-08-19T13:16:12;9.30;;;8.25;;
62832;SDS011;48891;49.220;6.920;2022-08-19T13:18:38;9.30;;;7.75;;
62832;SDS011;48891;49.220;6.920;2022-08-19T13:21:05;9.35;;;7.75;;
62832;SDS011;48891;49.220;6.920;2022-08-19T13:23:32;9.43;;;8.13;;
62832;SDS011;48891;49.220;6.920;2022-08-19T13:25:59;9.57;;;7.75;;
62832;SDS011;48891;49.220;6.920;2022-08-19T13:28:26;9.83;;;7.80;;
62832;SDS011;48891;49.220;6.920;2022-08-19T13:30:51;8.63;;;7.60;;
62832;SDS011;48891;49.220;6.920;2022-08-19T13:33:16;9.48;;;7.53;;
62832;SDS011;48891;49.220;6.920;2022-08-19T13:38:19;9.35;;;7.40;;
62832;SDS011;48891;49.220;6.920;2022-08-19T13:40:46;8.50;;;7.25;;
62832;SDS011;48891;49.220;6.920;2022-08-19T13:43:12;8.88;;;7.50;;
62832;SDS011;48891;49.220;6.920;2022-08-19T13:45:38;8.80;;;7.25;;
62832;SDS011;48891;49.220;6.920;2022-08-19T13:48:04;8.98;;;8.05;;
62832;SDS011;48891;49.220;6.920;2022-08-19T13:50:30;7.72;;;6.80;;
62832;SDS011;48891;49.220;6.920;2022-08-19T13:52:56;8.15;;;7.13;;
62832;SDS011;48891;49.220;6.920;2022-08-19T13:55:21;9.73;;;6.90;;
62832;SDS011;48891;49.220;6.920;2022-08-19T13:58:05;8.20;;;6.70;;
62832;SDS011;48891;49.220;6.920;2022-08-19T14:00:32;7.03;;;6.20;;
62832;SDS011;48891;49.220;6.920;2022-08-19T14:03:00;8.00;;;6.55;;
62832;SDS011;48891;49.220;6.920;2022-08-19T14:05:26;7.10;;;6.40;;
62832;SDS011;48891;49.220;6.920;2022-08-19T14:07:52;7.35;;;6.55;;
62832;SDS011;48891;49.220;6.920;2022-08-19T14:10:18;7.05;;;6.18;;
62832;SDS011;48891;49.220;6.920;2022-08-19T14:12:44;6.70;;;5.97;;
62832;SDS011;48891;49.220;6.920;2022-08-19T14:15:10;6.97;;;6.18;;
62832;SDS011;48891;49.220;6.920;2022-08-19T14:17:43;6.93;;;6.03;;
62832;SDS011;48891;49.220;6.920;2022-08-19T14:20:10;7.00;;;6.10;;
62832;SDS011;48891;49.220;6.920;2022-08-19T14:22:37;5.95;;;5.10;;
62832;SDS011;48891;49.220;6.920;2022-08-19T14:25:06;6.50;;;5.72;;
62832;SDS011;48891;49.220;6.920;2022-08-19T14:27:33;7.28;;;5.53;;
62832;SDS011;48891;49.220;6.920;2022-08-19T14:29:59;7.10;;;5.70;;
62832;SDS011;48891;49.220;6.920;2022-08-19T14:32:25;5.90;;;5.30;;
62832;SDS011;48891;49.220;6.920;2022-08-19T14:34:50;6.20;;;5.60;;
62832;SDS011;48891;49.220;6.920;2022-08-19T14:37:15;6.47;;;4.87;;
62832;SDS011;48891;49.220;6.920;2022-08-19T14:39:41;6.33;;;5.07;;
62832;SDS011;48891;49.220;6.920;2022-08-19T14:42:07;5.97;;;4.82;;
62832;SDS011;48891;49.220;6.920;2022-08-19T14:44:34;6.05;;;5.22;;
62832;SDS011;48891;49.220;6.920;2022-08-19T14:46:59;6.22;;;4.90;;
62832;SDS011;48891;49.220;6.920;2022-08-19T14:49:25;5.55;;;4.60;;
62832;SDS011;48891;49.220;6.920;2022-08-19T14:51:50;6.35;;;5.13;;
62832;SDS011;48891;49.220;6.920;2022-08-19T14:54:15;5.03;;;4.10;;
62832;SDS011;48891;49.220;6.920;2022-08-19T14:56:40;5.30;;;4.60;;
62832;SDS011;48891;49.220;6.920;2022-08-19T14:59:06;5.25;;;4.55;;